Time;durP1;ratioP1;P1;durP2;ratioP2;P2;SDS_P1;SDS_P2;PMS_P1;PMS_P2;Temp;Humidity;BMP_temperature;BMP_pressure;BME280_temperature;BME280_humidity;BME280_pressure;Samples;Min_cycle;Max_cycle;Signal;HPM_P1;HPM_P2
2022/06/30 00:02:00;;;;;;;3.28;2.80;;;20.00;99.90;;;;;;5034196;28;20030;-82
2022/06/30 00:04:26;;;;;;;4.65;3.28;;;20.00;99.90;;;;;;5032986;28;20029;-82
2022/06/30 00:06:52;;;;;;;3.72;3.30;;;20.00;99.90;;;;;;5034238;28;20112;-81
2022/06/30 00:09:19;;;;;;;5.70;4.03;;;20.00;99.90;;;;;;5034260;28;20054;-82
2022/06/30 00:11:44;;;;;;;4.25;3.60;;;20.00;99.90;;;;;;5034079;28;20037;-81
2022/06/30 00:14:10;;;;;;;3.55;3.25;;;19.90;99.90;;;;;;5032979;28;20033;-82
2022/06/30 00:16:36;;;;;;;5.15;3.13;;;19.90;99.90;;;;;;5032870;28;20029;-83
2022/06/30 00:19:01;;;;;;;4.57;3.08;;;19.90;99.90;;;;;;5034152;28;20029;-82
2022/06/30 00:21:27;;;;;;;8.32;3.30;;;19.90;99.90;;;;;;5033989;28;20029;-82
2022/06/30 00:23:53;;;;;;;5.88;3.00;;;19.90;99.90;;;;;;5033031;28;20072;-83
2022/06/30 00:26:18;;;;;;;4.28;2.80;;;19.80;99.90;;;;;;5032836;28;20054;-83
2022/06/30 00:28:44;;;;;;;6.78;4.05;;;19.80;99.90;;;;;;5032481;28;20052;-82
2022/06/30 00:31:10;;;;;;;6.03;3.63;;;19.80;99.90;;;;;;5033908;28;20108;-83
2022/06/30 00:33:35;;;;;;;4.07;3.28;;;19.80;99.90;;;;;;5033846;28;20116;-83
2022/06/30 00:36:01;;;;;;;4.88;3.30;;;19.70;99.90;;;;;;5033677;28;20036;-82
2022/06/30 00:38:27;;;;;;;3.60;2.75;;;19.70;99.90;;;;;;5034054;28;20101;-82
2022/06/30 00:40:52;;;;;;;6.68;3.55;;;19.70;99.90;;;;;;5035769;28;20076;-82
2022/06/30 00:43:18;;;;;;;4.30;3.70;;;19.70;99.90;;;;;;5036751;28;20078;-82
2022/06/30 00:45:47;;;;;;;6.72;3.95;;;19.60;99.90;;;;;;5038115;28;20025;-82
2022/06/30 00:48:14;;;;;;;3.53;3.20;;;19.60;99.90;;;;;;5036749;28;20025;-82
2022/06/30 00:50:40;;;;;;;3.50;2.92;;;19.60;99.90;;;;;;5037854;28;20171;-82
2022/06/30 00:53:07;;;;;;;5.43;3.55;;;19.60;99.90;;;;;;5037973;28;20057;-82
2022/06/30 00:55:34;;;;;;;4.82;3.22;;;19.70;99.90;;;;;;5036512;28;20083;-82
2022/06/30 00:58:01;;;;;;;7.28;3.88;;;19.70;99.90;;;;;;5037724;28;20053;-82
2022/06/30 01:00:35;;;;;;;4.22;3.22;;;19.70;99.90;;;;;;5036403;28;20033;-82
2022/06/30 01:03:01;;;;;;;3.72;3.42;;;19.70;99.90;;;;;;5036595;28;20036;-82
2022/06/30 01:05:27;;;;;;;5.80;4.43;;;19.70;99.90;;;;;;5037738;28;20025;-82
2022/06/30 01:07:57;;;;;;;3.97;3.58;;;19.70;99.90;;;;;;5037524;28;20453;-82
2022/06/30 01:13:07;;;;;;;4.60;3.78;;;19.70;99.90;;;;;;5037281;28;20056;-82
2022/06/30 01:15:33;;;;;;;6.97;3.50;;;19.60;99.90;;;;;;5037535;28;20453;-82
2022/06/30 01:17:59;;;;;;;4.47;3.25;;;19.60;99.90;;;;;;5036624;28;20489;-82
2022/06/30 01:20:27;;;;;;;3.95;3.50;;;19.60;99.90;;;;;;5037587;28;20032;-82
2022/06/30 01:22:54;;;;;;;6.25;4.00;;;19.60;99.90;;;;;;5037431;28;20022;-82
2022/06/30 01:25:19;;;;;;;5.50;3.75;;;19.60;99.90;;;;;;5037210;28;20030;-83
2022/06/30 01:27:45;;;;;;;5.93;3.60;;;19.60;99.90;;;;;;5036244;28;20021;-82
2022/06/30 01:30:11;;;;;;;4.35;3.95;;;19.50;99.90;;;;;;5035936;28;20473;-83
2022/06/30 01:32:37;;;;;;;7.13;3.38;;;19.50;99.90;;;;;;5035964;28;20034;-82
2022/06/30 01:35:03;;;;;;;5.13;3.13;;;19.50;99.90;;;;;;5037052;28;20032;-82
2022/06/30 01:37:51;;;;;;;5.35;3.78;;;19.50;99.90;;;;;;5035786;28;20030;-82
2022/06/30 01:40:18;;;;;;;6.38;4.28;;;19.50;99.90;;;;;;5037040;28;20061;-82
2022/06/30 01:42:44;;;;;;;7.97;4.60;;;19.50;99.90;;;;;;5035862;28;20385;-82
2022/06/30 01:45:10;;;;;;;5.70;3.88;;;19.50;99.90;;;;;;5036971;28;20022;-82
2022/06/30 01:47:36;;;;;;;4.90;4.07;;;19.60;99.90;;;;;;5036877;28;20025;-82
2022/06/30 01:50:08;;;;;;;7.80;4.00;;;19.60;99.90;;;;;;5036823;28;20030;-82
2022/06/30 01:52:33;;;;;;;6.05;4.22;;;19.60;99.90;;;;;;5035961;28;20026;-82
2022/06/30 01:54:59;;;;;;;6.13;3.70;;;19.60;99.90;;;;;;5035350;28;20056;-82
2022/06/30 01:57:24;;;;;;;4.00;3.60;;;19.60;99.90;;;;;;5036725;28;20489;-82
2022/06/30 01:59:50;;;;;;;4.45;3.05;;;19.70;99.90;;;;;;5035393;28;20035;-82
2022/06/30 02:02:16;;;;;;;4.75;3.55;;;19.70;99.90;;;;;;5036578;28;20131;-82
2022/06/30 02:04:47;;;;;;;5.70;4.00;;;19.70;99.90;;;;;;5035248;28;20480;-82
2022/06/30 02:07:14;;;;;;;3.90;3.53;;;19.70;99.90;;;;;;5035335;28;20035;-82
2022/06/30 02:09:40;;;;;;;6.47;3.47;;;19.70;99.90;;;;;;5036373;28;20030;-82
2022/06/30 02:14:50;;;;;;;4.78;3.60;;;19.70;99.90;;;;;;5036216;28;20075;-82
2022/06/30 02:17:16;;;;;;;4.60;3.83;;;19.70;99.90;;;;;;5035902;28;20433;-82
2022/06/30 02:19:42;;;;;;;5.38;3.95;;;19.70;99.90;;;;;;5035105;28;20061;-83
2022/06/30 02:22:07;;;;;;;5.60;3.65;;;19.70;99.90;;;;;;5035267;28;20029;-83
2022/06/30 02:24:33;;;;;;;6.30;3.60;;;19.60;99.90;;;;;;5034910;28;20057;-83
2022/06/30 02:26:59;;;;;;;5.13;3.58;;;19.60;99.90;;;;;;5036178;28;20025;-83
2022/06/30 02:29:24;;;;;;;5.68;3.83;;;19.60;99.90;;;;;;5034754;28;20029;-83
2022/06/30 02:31:50;;;;;;;6.78;4.65;;;19.50;99.90;;;;;;5035734;28;20041;-83
2022/06/30 02:34:15;;;;;;;5.72;3.92;;;19.40;99.90;;;;;;5034720;28;20047;-83
2022/06/30 02:36:41;;;;;;;7.53;4.13;;;19.40;99.90;;;;;;5034221;28;20068;-83
2022/06/30 02:39:07;;;;;;;5.47;4.30;;;19.40;99.90;;;;;;5034721;28;20025;-83
2022/06/30 02:41:32;;;;;;;6.82;4.00;;;19.40;99.90;;;;;;5035861;28;20049;-83
2022/06/30 02:43:58;;;;;;;5.55;3.97;;;19.30;99.90;;;;;;5034560;28;20470;-83
2022/06/30 02:46:24;;;;;;;4.97;3.97;;;19.30;99.90;;;;;;5035739;28;20025;-83
2022/06/30 02:48:50;;;;;;;5.82;4.38;;;19.30;99.90;;;;;;5034644;28;20032;-83
2022/06/30 02:51:15;;;;;;;5.00;4.40;;;19.30;99.90;;;;;;5034316;28;20033;-83
2022/06/30 02:53:41;;;;;;;7.28;4.28;;;19.30;99.90;;;;;;5034368;28;20088;-83
2022/06/30 02:56:07;;;;;;;5.40;4.68;;;19.20;99.90;;;;;;5035509;28;20021;-83
2022/06/30 02:58:32;;;;;;;5.43;4.45;;;19.20;99.90;;;;;;5033714;28;20099;-82
2022/06/30 03:00:58;;;;;;;6.07;4.40;;;19.20;99.90;;;;;;5034359;28;20500;-82
2022/06/30 03:03:23;;;;;;;5.47;4.50;;;19.20;99.90;;;;;;5034533;28;20025;-82
2022/06/30 03:05:49;;;;;;;4.88;4.38;;;19.10;99.90;;;;;;5035383;28;20109;-82
2022/06/30 03:08:15;;;;;;;4.60;4.07;;;19.10;99.90;;;;;;5035308;28;20112;-82
2022/06/30 03:10:41;;;;;;;6.45;4.60;;;19.10;99.90;;;;;;5034207;28;20133;-82
2022/06/30 03:13:06;;;;;;;4.85;4.38;;;19.10;99.90;;;;;;5034337;28;20028;-82
2022/06/30 03:15:32;;;;;;;8.18;4.63;;;19.10;99.90;;;;;;5034121;28;20108;-82
2022/06/30 03:17:57;;;;;;;6.65;4.18;;;19.10;99.90;;;;;;5034335;28;20055;-83
2022/06/30 03:20:23;;;;;;;4.95;4.32;;;19.10;99.90;;;;;;5035067;28;20037;-83
2022/06/30 03:22:49;;;;;;;5.78;4.07;;;19.10;99.90;;;;;;5035364;28;20033;-83
2022/06/30 03:25:15;;;;;;;6.63;4.40;;;19.10;99.90;;;;;;5033769;28;20025;-83
2022/06/30 03:27:41;;;;;;;5.53;4.18;;;19.10;99.90;;;;;;5035077;28;20033;-83
2022/06/30 03:30:07;;;;;;;5.28;4.70;;;19.10;99.90;;;;;;5033994;28;20465;-83
2022/06/30 03:32:32;;;;;;;4.65;4.18;;;19.10;99.90;;;;;;5034961;28;20087;-83
2022/06/30 03:34:58;;;;;;;6.03;4.28;;;19.10;99.90;;;;;;5033582;28;20025;-83
2022/06/30 03:37:24;;;;;;;8.15;5.38;;;19.10;99.90;;;;;;5034876;28;20433;-83
2022/06/30 03:39:49;;;;;;;8.15;5.35;;;19.10;99.90;;;;;;5034698;28;20057;-83
2022/06/30 03:42:15;;;;;;;4.97;4.55;;;19.10;99.90;;;;;;5033842;28;20021;-83
2022/06/30 03:44:41;;;;;;;6.40;4.05;;;19.10;99.90;;;;;;5034537;28;20064;-82
2022/06/30 03:47:07;;;;;;;4.05;3.63;;;19.20;99.90;;;;;;5033913;28;20033;-83
2022/06/30 03:49:33;;;;;;;5.38;3.75;;;19.20;99.90;;;;;;5034596;28;20018;-83
2022/06/30 03:51:58;;;;;;;5.22;4.32;;;19.20;99.90;;;;;;5033327;28;20030;-83
2022/06/30 03:54:24;;;;;;;6.30;3.90;;;19.30;99.90;;;;;;5033699;28;20025;-82
2022/06/30 03:56:49;;;;;;;5.47;4.03;;;19.40;99.90;;;;;;5034514;28;20492;-83
2022/06/30 03:59:15;;;;;;;4.63;3.28;;;19.50;99.90;;;;;;5034296;28;20030;-84
2022/06/30 04:01:41;;;;;;;4.78;4.32;;;19.70;99.90;;;;;;5034483;28;20061;-83
2022/06/30 04:04:07;;;;;;;6.03;4.03;;;19.80;99.90;;;;;;5034540;28;20057;-83
2022/06/30 04:06:33;;;;;;;4.45;3.60;;;19.90;99.90;;;;;;5033683;28;20116;-82
2022/06/30 04:08:58;;;;;;;5.07;3.70;;;20.10;99.90;;;;;;5034071;28;20021;-64
2022/06/30 04:11:24;;;;;;;4.00;3.50;;;20.20;99.90;;;;;;5032989;28;20037;-63
2022/06/30 04:13:49;;;;;;;6.72;3.10;;;20.40;99.90;;;;;;5033030;28;20041;-63
2022/06/30 04:16:15;;;;;;;4.13;3.13;;;20.50;99.90;;;;;;5033704;28;20053;-63
2022/06/30 04:18:41;;;;;;;3.75;3.40;;;20.60;99.90;;;;;;5033775;28;20118;-62
2022/06/30 04:21:07;;;;;;;3.50;3.20;;;20.80;99.90;;;;;;5033615;28;20065;-62
2022/06/30 04:23:32;;;;;;;4.43;2.80;;;20.90;99.90;;;;;;5033807;28;20021;-62
2022/06/30 04:25:58;;;;;;;3.15;2.90;;;20.90;99.90;;;;;;5034284;28;20412;-63
2022/06/30 04:28:24;;;;;;;3.00;2.80;;;21.00;99.90;;;;;;5033465;28;20118;-62
2022/06/30 04:33:33;;;;;;;3.50;3.00;;;21.10;99.90;;;;;;5032514;28;20104;-62
2022/06/30 04:35:59;;;;;;;4.57;3.50;;;21.20;99.90;;;;;;5033647;28;20030;-62
2022/06/30 04:38:24;;;;;;;3.40;3.10;;;21.30;99.90;;;;;;5032343;28;20112;-62
2022/06/30 04:43:34;;;;;;;3.40;2.70;;;21.40;99.90;;;;;;5033486;28;20075;-85
2022/06/30 04:46:00;;;;;;;3.30;3.00;;;21.60;99.90;;;;;;5032997;28;20025;-85
2022/06/30 04:48:25;;;;;;;3.10;2.90;;;21.60;99.90;;;;;;5034076;28;20033;-86
2022/06/30 04:50:51;;;;;;;3.22;2.92;;;21.60;99.90;;;;;;5034031;28;20025;-82
2022/06/30 04:53:17;;;;;;;4.20;3.08;;;21.60;99.90;;;;;;5032684;28;20117;-82
2022/06/30 04:55:42;;;;;;;6.65;3.63;;;21.60;99.90;;;;;;5035474;28;20037;-81
2022/06/30 04:58:08;;;;;;;4.20;2.80;;;21.70;99.90;;;;;;5052323;28;20495;-83
2022/06/30 05:00:34;;;;;;;3.20;2.90;;;21.80;99.90;;;;;;5050966;28;20032;-82
2022/06/30 05:02:59;;;;;;;5.93;3.08;;;21.90;99.90;;;;;;5050188;28;20033;-82
2022/06/30 05:05:26;;;;;;;7.15;3.00;;;22.00;99.90;;;;;;5053278;28;20029;-82
2022/06/30 05:07:52;;;;;;;4.28;2.88;;;22.10;99.90;;;;;;5053670;28;20061;-82
2022/06/30 05:10:18;;;;;;;4.25;2.92;;;22.10;99.90;;;;;;5053821;28;20465;-82
2022/06/30 05:12:43;;;;;;;3.72;3.08;;;22.20;99.90;;;;;;5052363;28;20101;-82
2022/06/30 05:15:09;;;;;;;3.20;2.83;;;22.30;99.90;;;;;;5052621;28;20064;-82
2022/06/30 05:17:35;;;;;;;5.75;3.20;;;22.40;99.90;;;;;;5052500;28;20116;-82
2022/06/30 05:20:02;;;;;;;4.28;2.67;;;22.50;99.90;;;;;;5052400;28;20040;-83
2022/06/30 05:22:28;;;;;;;3.30;2.97;;;22.50;99.90;;;;;;5053699;28;20021;-83
2022/06/30 05:27:38;;;;;;;3.03;2.47;;;22.60;99.90;;;;;;5057164;28;20094;-83
2022/06/30 05:30:05;;;;;;;6.00;2.78;;;22.80;99.90;;;;;;5056133;28;20075;-83
2022/06/30 05:32:30;;;;;;;5.80;2.85;;;22.80;99.90;;;;;;5056526;28;20029;-82
2022/06/30 05:34:56;;;;;;;5.63;2.90;;;22.80;99.90;;;;;;5057184;28;20029;-83
2022/06/30 05:37:21;;;;;;;4.25;3.10;;;22.90;99.90;;;;;;5056779;28;20021;-83
2022/06/30 05:39:47;;;;;;;3.35;2.83;;;22.90;99.90;;;;;;5056001;28;20031;-82
2022/06/30 05:42:12;;;;;;;4.00;2.90;;;23.00;99.90;;;;;;5056542;28;20051;-83
2022/06/30 05:44:38;;;;;;;5.70;2.72;;;23.10;99.90;;;;;;5056598;28;20025;-83
2022/06/30 05:47:04;;;;;;;2.92;2.53;;;23.30;99.90;;;;;;5056579;28;20421;-83
2022/06/30 05:49:30;;;;;;;2.67;2.47;;;23.40;99.90;;;;;;5055423;28;20029;-83
2022/06/30 05:51:56;;;;;;;2.72;2.53;;;23.40;99.90;;;;;;5055654;28;20035;-83
2022/06/30 05:54:22;;;;;;;3.30;2.13;;;23.40;99.90;;;;;;5056255;28;20029;-83
2022/06/30 05:56:47;;;;;;;6.40;2.83;;;23.40;99.90;;;;;;5055828;28;20049;-83
2022/06/30 05:59:13;;;;;;;4.32;2.50;;;23.50;99.90;;;;;;5055784;28;20033;-83
2022/06/30 06:01:38;;;;;;;4.22;3.22;;;23.60;99.90;;;;;;5055725;28;20116;-83
2022/06/30 06:04:05;;;;;;;3.38;3.08;;;23.60;99.90;;;;;;5056878;28;20036;-83
2022/06/30 06:06:30;;;;;;;3.25;2.47;;;23.70;99.90;;;;;;5056807;28;20025;-83
2022/06/30 06:08:56;;;;;;;5.00;3.05;;;23.80;99.90;;;;;;5055750;28;20029;-83
2022/06/30 06:11:21;;;;;;;5.15;2.92;;;23.70;99.90;;;;;;5056459;28;20428;-82
2022/06/30 06:13:47;;;;;;;7.35;2.83;;;23.70;99.90;;;;;;5056390;28;20055;-82
2022/06/30 06:16:13;;;;;;;3.75;3.45;;;23.70;99.90;;;;;;5056081;28;20079;-83
2022/06/30 06:18:38;;;;;;;3.85;2.38;;;23.80;99.90;;;;;;5056582;28;20032;-82
2022/06/30 06:21:04;;;;;;;2.70;2.50;;;23.90;99.90;;;;;;5057159;28;20025;-82
2022/06/30 06:23:29;;;;;;;3.42;2.65;;;24.00;99.90;;;;;;5056479;28;20044;-83
2022/06/30 06:25:55;;;;;;;8.93;2.60;;;24.20;99.90;;;;;;5054591;28;20029;-83
2022/06/30 06:31:05;;;;;;;3.28;2.50;;;24.40;99.90;;;;;;5056049;28;20040;-83
2022/06/30 06:33:30;;;;;;;4.43;2.22;;;24.50;99.90;;;;;;5056435;28;20037;-83
2022/06/30 06:35:56;;;;;;;2.83;2.30;;;24.50;99.90;;;;;;5056047;28;20059;-83
2022/06/30 06:38:22;;;;;;;5.25;2.53;;;24.50;99.90;;;;;;5055444;28;20025;-83
2022/06/30 06:40:47;;;;;;;2.45;2.17;;;24.70;99.90;;;;;;5054681;28;20183;-83
2022/06/30 06:43:13;;;;;;;4.40;2.03;;;25.00;99.90;;;;;;5055946;28;20025;-83
2022/06/30 06:45:39;;;;;;;2.38;2.03;;;25.50;99.90;;;;;;5056101;28;20032;-83
2022/06/30 06:48:05;;;;;;;4.07;2.17;;;25.90;99.90;;;;;;5056095;28;20045;-83
2022/06/30 06:50:30;;;;;;;3.28;2.30;;;25.90;99.90;;;;;;5055693;28;20104;-83
2022/06/30 06:52:56;;;;;;;3.63;1.67;;;25.70;99.90;;;;;;5055878;28;20069;-82
2022/06/30 06:55:22;;;;;;;3.90;2.15;;;25.50;99.90;;;;;;5055812;28;20054;-82
2022/06/30 06:57:47;;;;;;;2.97;2.13;;;25.60;99.90;;;;;;5055314;28;20041;-83
2022/06/30 07:00:14;;;;;;;2.50;2.30;;;25.90;99.90;;;;;;5055766;28;20423;-83
2022/06/30 07:02:40;;;;;;;6.95;2.15;;;25.80;99.90;;;;;;5054630;28;20031;-83
2022/06/30 07:05:07;;;;;;;3.60;2.17;;;25.70;99.90;;;;;;5054227;28;20032;-82
2022/06/30 07:07:34;;;;;;;3.08;2.25;;;25.60;99.90;;;;;;5055570;28;20025;-83
2022/06/30 07:09:59;;;;;;;2.83;2.58;;;25.60;99.90;;;;;;5054268;28;20563;-83
2022/06/30 07:12:25;;;;;;;3.60;2.28;;;25.60;99.90;;;;;;5054029;28;20057;-83
2022/06/30 07:14:51;;;;;;;5.40;2.40;;;25.50;99.90;;;;;;5053915;28;20021;-83
2022/06/30 07:17:16;;;;;;;4.30;2.58;;;25.40;99.90;;;;;;5055533;28;20025;-83
2022/06/30 07:19:42;;;;;;;3.67;2.85;;;25.30;99.90;;;;;;5054617;28;20032;-82
2022/06/30 07:22:09;;;;;;;3.92;2.97;;;25.50;99.90;;;;;;5054840;28;20025;-82
2022/06/30 07:24:34;;;;;;;2.38;2.17;;;25.90;99.90;;;;;;5054175;28;20040;-83
2022/06/30 07:27:00;;;;;;;3.08;2.78;;;26.40;99.90;;;;;;5054564;28;20449;-83
2022/06/30 07:29:26;;;;;;;2.17;2.03;;;26.80;99.90;;;;;;5055061;28;20094;-83
2022/06/30 07:31:53;;;;;;;4.07;2.20;;;26.90;99.90;;;;;;5055025;28;20029;-83
2022/06/30 07:34:18;;;;;;;5.60;2.55;;;27.30;99.90;;;;;;5053871;28;20029;-83
2022/06/30 07:36:44;;;;;;;2.72;1.90;;;27.70;99.90;;;;;;5054013;28;20025;-82
2022/06/30 07:39:10;;;;;;;4.57;2.30;;;27.90;99.10;;;;;;5055109;28;20052;-83
2022/06/30 07:41:35;;;;;;;1.83;1.73;;;28.10;98.60;;;;;;5055173;28;20025;-85
2022/06/30 07:44:01;;;;;;;1.98;1.88;;;28.30;97.20;;;;;;5055261;28;20404;-87
2022/06/30 07:46:27;;;;;;;5.55;2.03;;;28.40;97.30;;;;;;5053962;28;20033;-86
2022/06/30 07:48:53;;;;;;;2.53;1.83;;;28.30;96.20;;;;;;5054975;28;20054;-85
2022/06/30 07:51:20;;;;;;;2.10;1.90;;;28.00;96.80;;;;;;5054914;28;20116;-87
2022/06/30 07:53:46;;;;;;;1.92;1.80;;;28.20;96.80;;;;;;5054889;28;20025;-85
2022/06/30 07:56:11;;;;;;;2.20;2.00;;;28.20;96.10;;;;;;5054817;28;20025;-86
2022/06/30 07:58:37;;;;;;;2.38;1.80;;;28.00;96.50;;;;;;5053445;28;20053;-84
2022/06/30 08:01:03;;;;;;;3.38;2.20;;;27.70;96.30;;;;;;5055036;28;20036;-85
2022/06/30 08:03:29;;;;;;;1.70;1.60;;;27.70;96.80;;;;;;5054634;28;20024;-84
2022/06/30 08:05:55;;;;;;;3.97;2.05;;;28.00;96.80;;;;;;5054644;28;20025;-85
2022/06/30 08:08:21;;;;;;;4.07;2.30;;;27.70;96.60;;;;;;5053636;28;20526;-85
2022/06/30 08:10:46;;;;;;;1.70;1.52;;;27.90;96.40;;;;;;5054502;28;20380;-84
2022/06/30 08:13:12;;;;;;;4.65;2.25;;;28.10;95.80;;;;;;5054339;28;20029;-84
2022/06/30 08:15:38;;;;;;;2.67;2.03;;;28.50;95.10;;;;;;5053027;28;20029;-83
2022/06/30 08:18:05;;;;;;;3.95;2.20;;;28.70;94.70;;;;;;5054032;28;20025;-83
2022/06/30 08:20:31;;;;;;;3.85;2.20;;;28.90;94.40;;;;;;5052969;28;20059;-82
2022/06/30 08:22:57;;;;;;;5.05;2.38;;;29.00;93.40;;;;;;5054354;28;20385;-82
2022/06/30 08:25:23;;;;;;;2.78;2.05;;;29.00;93.90;;;;;;5054095;28;20377;-81
2022/06/30 08:27:49;;;;;;;4.07;2.00;;;29.40;92.90;;;;;;5052713;28;20028;-81
2022/06/30 08:30:15;;;;;;;3.15;1.70;;;29.90;91.60;;;;;;5052472;28;20033;-81
2022/06/30 08:32:40;;;;;;;3.95;1.90;;;29.80;90.80;;;;;;5054129;28;20059;-82
2022/06/30 08:35:06;;;;;;;1.92;1.70;;;29.70;91.00;;;;;;5053915;28;20064;-81
2022/06/30 08:37:32;;;;;;;1.95;1.85;;;29.80;90.30;;;;;;5053963;28;20029;-81
2022/06/30 08:42:43;;;;;;;2.60;2.40;;;29.80;90.60;;;;;;5053526;28;20048;-81
2022/06/30 08:45:17;;;;;;;2.83;2.50;;;29.90;90.60;;;;;;5052629;28;20021;-81
2022/06/30 08:47:45;;;;;;;3.90;2.58;;;29.60;90.40;;;;;;5053787;28;20071;-81
2022/06/30 08:50:13;;;;;;;6.93;2.57;;;29.20;91.00;;;;;;5052516;28;20075;-81
2022/06/30 08:52:54;;;;;;;7.00;2.25;;;29.40;91.90;;;;;;5053763;28;20040;-81
2022/06/30 08:55:25;;;;;;;2.53;2.22;;;30.00;90.50;;;;;;5053770;28;20025;-81
2022/06/30 08:57:54;;;;;;;2.40;2.03;;;30.70;89.50;;;;;;5053248;28;20045;-81
2022/06/30 09:00:20;;;;;;;2.33;2.10;;;31.00;85.80;;;;;;5054160;28;20036;-81
2022/06/30 09:02:46;;;;;;;5.70;2.22;;;30.70;85.90;;;;;;5057724;28;20021;-81
2022/06/30 09:05:14;;;;;;;5.88;2.40;;;30.60;85.50;;;;;;5057769;28;20381;-81
2022/06/30 09:07:39;;;;;;;3.05;2.53;;;30.60;84.50;;;;;;5057664;28;20078;-81
2022/06/30 09:10:06;;;;;;;3.40;2.42;;;30.50;85.20;;;;;;5057432;28;20037;-81
2022/06/30 09:12:31;;;;;;;3.50;2.35;;;30.60;86.20;;;;;;5057090;28;20040;-81
2022/06/30 09:14:57;;;;;;;3.85;2.53;;;30.80;85.50;;;;;;5055968;28;20029;-81
2022/06/30 09:17:25;;;;;;;3.90;2.60;;;31.00;81.80;;;;;;5057590;28;20028;-81
2022/06/30 09:20:00;;;;;;;3.58;2.63;;;31.00;80.10;;;;;;5057007;28;20087;-82
2022/06/30 09:22:29;;;;;;;5.22;2.60;;;31.10;79.50;;;;;;5057236;28;20088;-82
2022/06/30 09:25:05;;;;;;;5.78;2.17;;;30.90;79.40;;;;;;5057076;28;20060;-81
2022/06/30 09:27:36;;;;;;;2.55;2.30;;;31.00;80.70;;;;;;5057189;28;20504;-81
2022/06/30 09:30:11;;;;;;;10.27;2.67;;;30.90;79.60;;;;;;5057081;28;20025;-83
2022/06/30 09:32:49;;;;;;;3.58;2.13;;;31.00;77.80;;;;;;5056189;28;20425;-81
2022/06/30 09:35:15;;;;;;;3.75;2.50;;;31.20;78.20;;;;;;5057252;28;20028;-81
2022/06/30 09:37:41;;;;;;;4.93;2.47;;;31.40;78.90;;;;;;5055728;28;20032;-81
2022/06/30 09:40:08;;;;;;;4.95;2.33;;;31.60;78.90;;;;;;5056980;28;20103;-80
2022/06/30 09:42:37;;;;;;;2.67;2.47;;;31.60;78.30;;;;;;5055461;28;20051;-80
2022/06/30 09:45:04;;;;;;;5.40;2.67;;;31.40;78.00;;;;;;5056546;28;20029;-80
2022/06/30 09:47:30;;;;;;;3.33;2.65;;;31.50;78.60;;;;;;5056485;28;20021;-80
2022/06/30 09:50:02;;;;;;;3.97;2.47;;;31.60;77.90;;;;;;5055127;28;20079;-83
2022/06/30 09:52:28;;;;;;;6.15;2.38;;;31.90;77.10;;;;;;5055334;28;20396;-81
2022/06/30 09:54:58;;;;;;;3.63;2.55;;;32.00;77.10;;;;;;5055290;28;20029;-82
2022/06/30 09:57:26;;;;;;;5.93;2.80;;;31.90;76.80;;;;;;5056422;28;20544;-81
2022/06/30 10:00:04;;;;;;;2.85;2.58;;;31.60;76.60;;;;;;5056450;28;20024;-79
2022/06/30 10:02:31;;;;;;;;;;;31.50;77.10;;;;;;5055515;28;20025;-79
2022/06/30 10:04:58;;;;;;;3.67;2.50;;;31.60;76.20;;;;;;5056191;28;20000;-79
2022/06/30 10:07:24;;;;;;;5.38;3.17;;;31.90;76.10;;;;;;5056246;28;20025;-81
2022/06/30 10:09:51;;;;;;;3.80;2.63;;;32.50;74.70;;;;;;5055112;28;20075;-79
2022/06/30 10:12:19;;;;;;;2.53;2.33;;;32.50;73.30;;;;;;5054915;28;20107;-80
2022/06/30 10:14:45;;;;;;;4.32;2.70;;;32.80;73.80;;;;;;5055896;28;20335;-80
2022/06/30 10:17:14;;;;;;;2.95;2.47;;;33.40;71.60;;;;;;5054631;28;20029;-80
2022/06/30 10:19:40;;;;;;;4.10;2.30;;;33.50;71.60;;;;;;5056170;28;20029;-83
2022/06/30 10:22:06;;;;;;;3.08;2.30;;;33.40;69.90;;;;;;5054764;28;20029;-83
2022/06/30 10:24:33;;;;;;;2.63;2.00;;;33.50;69.60;;;;;;5054330;28;20029;-81
2022/06/30 10:27:15;;;;;;;3.08;2.10;;;33.80;68.40;;;;;;5056055;28;20053;-83
2022/06/30 10:29:45;;;;;;;3.45;2.15;;;33.80;67.40;;;;;;5055358;28;20044;-83
2022/06/30 10:32:38;;;;;;;3.05;1.90;;;33.80;68.10;;;;;;5055063;28;20400;-81
2022/06/30 10:35:17;;;;;;;3.05;2.13;;;34.30;66.70;;;;;;5050324;28;20041;-81
2022/06/30 10:38:22;;;;;;;2.28;2.00;;;34.60;62.80;;;;;;5056011;28;20349;-83
2022/06/30 10:40:47;;;;;;;3.25;2.13;;;34.60;61.50;;;;;;5013608;28;20108;-80
2022/06/30 10:43:16;;;;;;;2.30;2.10;;;35.00;61.60;;;;;;5047850;28;20453;-81
2022/06/30 10:46:05;;;;;;;3.28;1.95;;;35.20;60.10;;;;;;5053996;28;20037;-81
2022/06/30 10:48:50;;;;;;;3.10;1.90;;;35.10;60.40;;;;;;5054832;28;20021;-81
2022/06/30 10:51:16;;;;;;;2.65;2.05;;;34.90;60.70;;;;;;5055340;28;20061;-81
2022/06/30 10:53:42;;;;;;;3.22;2.35;;;34.80;60.50;;;;;;5055487;28;20029;-82
2022/06/30 10:56:08;;;;;;;5.82;2.13;;;34.30;61.00;;;;;;5054106;28;20154;-81
2022/06/30 10:58:34;;;;;;;2.65;2.00;;;33.60;62.20;;;;;;5056010;28;20041;-81
2022/06/30 11:01:10;;;;;;;3.63;2.25;;;33.30;62.80;;;;;;5055591;28;20425;-81
2022/06/30 11:03:35;;;;;;;5.03;2.28;;;33.20;63.20;;;;;;5054080;28;20025;-81
2022/06/30 11:06:05;;;;;;;3.55;2.50;;;33.70;63.10;;;;;;5054409;28;20461;-80
2022/06/30 11:08:50;;;;;;;2.33;2.13;;;34.10;62.80;;;;;;5055171;28;20021;-81
2022/06/30 11:11:25;;;;;;;3.17;2.50;;;34.10;61.30;;;;;;5055408;28;20025;-82
2022/06/30 11:14:03;;;;;;;3.28;2.50;;;34.10;61.20;;;;;;5055245;28;20120;-82
2022/06/30 11:16:31;;;;;;;2.50;2.30;;;33.80;61.10;;;;;;5055139;28;20025;-82
2022/06/30 11:18:57;;;;;;;2.88;2.30;;;34.00;61.30;;;;;;5053884;28;20358;-81
2022/06/30 11:21:23;;;;;;;3.47;2.33;;;34.20;61.00;;;;;;5055157;28;20492;-82
2022/06/30 11:23:50;;;;;;;2.92;2.72;;;34.00;60.80;;;;;;5053409;28;20025;-84
2022/06/30 11:29:04;;;;;;;2.85;2.65;;;32.80;63.60;;;;;;5055117;28;20488;-83
2022/06/30 11:31:32;;;;;;;3.55;2.70;;;32.90;63.70;;;;;;5054994;28;20025;-82
2022/06/30 11:34:08;;;;;;;2.83;2.60;;;33.40;62.50;;;;;;5054836;28;20025;-82
2022/06/30 11:36:35;;;;;;;3.63;2.78;;;33.60;62.10;;;;;;5054438;28;20021;-81
2022/06/30 11:39:04;;;;;;;2.83;2.50;;;34.00;61.10;;;;;;5054121;28;20023;-82
2022/06/30 11:44:17;;;;;;;3.15;2.75;;;33.70;62.60;;;;;;5054847;28;20118;-82
2022/06/30 11:46:53;;;;;;;4.63;2.92;;;34.10;61.90;;;;;;5054541;28;20029;-82
2022/06/30 11:49:20;;;;;;;6.97;3.53;;;34.40;60.90;;;;;;5052833;28;20103;-82
2022/06/30 11:51:46;;;;;;;4.88;2.65;;;34.60;60.20;;;;;;5052846;28;20469;-82
2022/06/30 11:54:13;;;;;;;2.92;2.67;;;34.50;59.70;;;;;;5053113;28;20037;-81
2022/06/30 11:57:08;;;;;;;3.58;2.63;;;34.50;60.10;;;;;;5052591;28;20045;-81
2022/06/30 11:59:34;;;;;;;3.67;2.85;;;34.70;59.50;;;;;;5045430;28;20041;-81
2022/06/30 12:02:04;;;;;;;4.18;2.17;;;34.90;59.50;;;;;;5054217;28;20044;-81
2022/06/30 12:04:30;;;;;;;;;;;35.00;59.20;;;;;;5055087;28;20029;-81
2022/06/30 12:06:56;;;;;;;3.92;3.00;;;35.20;58.00;;;;;;5053378;28;19912;-81
2022/06/30 12:09:21;;;;;;;5.13;3.03;;;35.50;58.10;;;;;;5054089;28;20532;-82
2022/06/30 12:11:47;;;;;;;6.15;2.92;;;35.80;57.10;;;;;;5054067;28;20033;-82
2022/06/30 12:14:15;;;;;;;5.25;2.75;;;35.90;57.00;;;;;;5053002;28;20468;-83
2022/06/30 12:16:41;;;;;;;5.90;2.77;;;36.00;56.20;;;;;;5052975;28;20108;-81
2022/06/30 12:19:07;;;;;;;3.58;2.50;;;35.70;56.70;;;;;;5053930;28;20376;-82
2022/06/30 12:21:33;;;;;;;3.67;2.50;;;35.80;57.50;;;;;;5054040;28;20036;-81
2022/06/30 12:23:59;;;;;;;3.15;2.65;;;36.70;56.20;;;;;;5052593;28;20070;-83
2022/06/30 12:26:25;;;;;;;4.03;2.50;;;37.10;55.30;;;;;;5052926;28;20025;-83
2022/06/30 12:28:55;;;;;;;3.13;2.70;;;37.30;54.00;;;;;;5052675;28;20372;-82
2022/06/30 12:31:27;;;;;;;2.33;2.22;;;37.30;53.10;;;;;;5053776;28;20064;-82
2022/06/30 12:33:54;;;;;;;3.47;2.38;;;37.40;53.00;;;;;;5053911;28;20021;-83
2022/06/30 12:36:22;;;;;;;5.17;2.80;;;37.50;53.00;;;;;;5051777;28;20170;-84
2022/06/30 12:38:48;;;;;;;4.22;2.65;;;37.80;52.30;;;;;;5052564;28;20025;-84
2022/06/30 12:41:14;;;;;;;3.13;2.83;;;38.00;51.90;;;;;;5053453;28;20365;-84
2022/06/30 12:43:49;;;;;;;6.60;2.95;;;38.00;51.80;;;;;;5053597;28;20021;-84
2022/06/30 12:46:16;;;;;;;5.40;2.60;;;37.50;52.20;;;;;;5053636;28;20457;-83
2022/06/30 12:48:47;;;;;;;2.28;2.15;;;37.60;52.30;;;;;;5053613;28;20064;-82
2022/06/30 12:51:15;;;;;;;3.50;2.72;;;37.80;51.50;;;;;;5053630;28;20033;-83
2022/06/30 12:53:41;;;;;;;4.82;3.00;;;37.50;51.70;;;;;;5052278;28;20053;-82
2022/06/30 12:56:14;;;;;;;4.35;2.67;;;37.00;52.30;;;;;;5053492;28;20017;-82
2022/06/30 12:58:49;;;;;;;5.07;3.00;;;37.60;52.50;;;;;;5053599;28;20472;-82
2022/06/30 13:01:19;;;;;;;7.60;3.00;;;37.40;52.00;;;;;;5052273;28;20033;-80
2022/06/30 13:03:51;;;;;;;6.07;2.70;;;36.50;52.70;;;;;;5053486;28;20515;-80
2022/06/30 13:06:16;;;;;;;6.28;3.17;;;36.30;53.70;;;;;;5053162;28;20075;-83
2022/06/30 13:11:27;;;;;;;3.10;2.80;;;36.80;52.80;;;;;;5053380;28;20044;-81
2022/06/30 13:13:55;;;;;;;3.78;3.08;;;36.80;52.80;;;;;;5051777;28;20033;-83
2022/06/30 13:16:21;;;;;;;6.40;3.17;;;36.50;53.30;;;;;;5053574;28;20112;-82